sensor_id;sensor_type;location;lat;lon;timestamp;temperature;humidity
70807;DHT22;58882;52.170;5.386;2023-04-03T00:00:19;13.30;38.80
70807;DHT22;58882;52.170;5.386;2023-04-03T00:03:06;13.30;38.90
70807;DHT22;58882;52.170;5.386;2023-04-03T00:05:46;13.30;38.90
70807;DHT22;58882;52.170;5.386;2023-04-03T00:08:33;13.30;38.90
70807;DHT22;58882;52.170;5.386;2023-04-03T00:11:13;13.20;38.90
70807;DHT22;58882;52.170;5.386;2023-04-03T00:14:00;13.30;38.90
70807;DHT22;58882;52.170;5.386;2023-04-03T00:16:40;13.20;38.90
70807;DHT22;58882;52.170;5.386;2023-04-03T00:19:27;13.20;38.80
70807;DHT22;58882;52.170;5.386;2023-04-03T00:22:07;13.20;38.90
70807;DHT22;58882;52.170;5.386;2023-04-03T00:24:55;13.20;39.00
70807;DHT22;58882;52.170;5.386;2023-04-03T00:27:39;13.20;39.10
70807;DHT22;58882;52.170;5.386;2023-04-03T00:30:32;13.20;39.10
70807;DHT22;58882;52.170;5.386;2023-04-03T00:33:05;13.20;39.20
70807;DHT22;58882;52.170;5.386;2023-04-03T00:35:59;13.20;39.20
70807;DHT22;58882;52.170;5.386;2023-04-03T00:38:38;13.20;39.30
70807;DHT22;58882;52.170;5.386;2023-04-03T00:41:31;13.20;39.20
70807;DHT22;58882;52.170;5.386;2023-04-03T00:47:19;13.20;39.20
70807;DHT22;58882;52.170;5.386;2023-04-03T00:50:00;13.10;39.10
70807;DHT22;58882;52.170;5.386;2023-04-03T00:52:55;13.10;39.20
70807;DHT22;58882;52.170;5.386;2023-04-03T00:55:28;13.10;39.30
70807;DHT22;58882;52.170;5.386;2023-04-03T00:58:33;13.10;39.30
70807;DHT22;58882;52.170;5.386;2023-04-03T01:01:18;13.10;39.40
70807;DHT22;58882;52.170;5.386;2023-04-03T01:04:30;13.10;39.40
70807;DHT22;58882;52.170;5.386;2023-04-03T01:07:35;13.00;39.50
70807;DHT22;58882;52.170;5.386;2023-04-03T01:10:26;13.00;39.50
70807;DHT22;58882;52.170;5.386;2023-04-03T01:13:26;13.00;39.50
70807;DHT22;58882;52.170;5.386;2023-04-03T01:16:05;13.00;39.60
70807;DHT22;58882;52.170;5.386;2023-04-03T01:19:00;13.00;39.60
70807;DHT22;58882;52.170;5.386;2023-04-03T01:21:52;13.10;39.70
70807;DHT22;58882;52.170;5.386;2023-04-03T01:24:47;13.00;39.70
70807;DHT22;58882;52.170;5.386;2023-04-03T01:27:20;13.00;39.80
70807;DHT22;58882;52.170;5.386;2023-04-03T01:30:18;13.10;39.90
70807;DHT22;58882;52.170;5.386;2023-04-03T01:32:51;13.00;39.90
70807;DHT22;58882;52.170;5.386;2023-04-03T01:35:45;13.00;40.00
70807;DHT22;58882;52.170;5.386;2023-04-03T01:38:26;13.00;40.20
70807;DHT22;58882;52.170;5.386;2023-04-03T01:41:13;13.00;40.20
70807;DHT22;58882;52.170;5.386;2023-04-03T01:44:00;13.00;40.20
70807;DHT22;58882;52.170;5.386;2023-04-03T01:46:54;13.00;40.30
70807;DHT22;58882;52.170;5.386;2023-04-03T01:49:35;13.00;40.30
70807;DHT22;58882;52.170;5.386;2023-04-03T01:52:22;13.00;40.30
70807;DHT22;58882;52.170;5.386;2023-04-03T01:55:04;13.00;41.30
70807;DHT22;58882;52.170;5.386;2023-04-03T01:57:51;13.00;40.30
70807;DHT22;58882;52.170;5.386;2023-04-03T02:00:24;13.00;40.40
70807;DHT22;58882;52.170;5.386;2023-04-03T02:03:18;13.00;40.50
70807;DHT22;58882;52.170;5.386;2023-04-03T02:05:58;13.00;40.50
70807;DHT22;58882;52.170;5.386;2023-04-03T02:08:46;13.00;40.50
70807;DHT22;58882;52.170;5.386;2023-04-03T02:11:40;12.90;40.60
70807;DHT22;58882;52.170;5.386;2023-04-03T02:14:36;12.90;40.60
70807;DHT22;58882;52.170;5.386;2023-04-03T02:17:16;12.90;40.80
70807;DHT22;58882;52.170;5.386;2023-04-03T02:20:04;12.90;40.80
70807;DHT22;58882;52.170;5.386;2023-04-03T02:22:44;12.90;40.90
70807;DHT22;58882;52.170;5.386;2023-04-03T02:25:32;12.90;40.90
70807;DHT22;58882;52.170;5.386;2023-04-03T02:28:12;12.90;40.90
70807;DHT22;58882;52.170;5.386;2023-04-03T02:30:59;12.90;40.90
70807;DHT22;58882;52.170;5.386;2023-04-03T02:33:41;12.90;40.90
70807;DHT22;58882;52.170;5.386;2023-04-03T02:36:28;12.90;40.90
70807;DHT22;58882;52.170;5.386;2023-04-03T02:39:10;12.90;40.90
70807;DHT22;58882;52.170;5.386;2023-04-03T02:41:57;12.90;40.90
70807;DHT22;58882;52.170;5.386;2023-04-03T02:44:37;12.90;40.90
70807;DHT22;58882;52.170;5.386;2023-04-03T02:47:31;12.90;40.90
70807;DHT22;58882;52.170;5.386;2023-04-03T02:50:11;13.00;41.00
70807;DHT22;58882;52.170;5.386;2023-04-03T02:52:58;12.90;40.90
70807;DHT22;58882;52.170;5.386;2023-04-03T02:55:38;12.90;41.00
70807;DHT22;58882;52.170;5.386;2023-04-03T02:58:26;12.90;41.20
70807;DHT22;58882;52.170;5.386;2023-04-03T03:01:07;12.90;41.10
70807;DHT22;58882;52.170;5.386;2023-04-03T03:03:54;12.90;41.10
70807;DHT22;58882;52.170;5.386;2023-04-03T03:06:48;12.90;41.10
70807;DHT22;58882;52.170;5.386;2023-04-03T03:09:29;12.90;41.10
70807;DHT22;58882;52.170;5.386;2023-04-03T03:12:23;12.90;41.20
70807;DHT22;58882;52.170;5.386;2023-04-03T03:15:07;12.90;41.30
70807;DHT22;58882;52.170;5.386;2023-04-03T03:17:54;12.90;41.30
70807;DHT22;58882;52.170;5.386;2023-04-03T03:20:34;12.90;41.40
70807;DHT22;58882;52.170;5.386;2023-04-03T03:23:22;12.90;41.40
70807;DHT22;58882;52.170;5.386;2023-04-03T03:26:07;12.90;41.40
70807;DHT22;58882;52.170;5.386;2023-04-03T03:28:54;12.90;41.50
70807;DHT22;58882;52.170;5.386;2023-04-03T03:31:34;12.90;41.60
70807;DHT22;58882;52.170;5.386;2023-04-03T03:34:28;12.90;41.60
70807;DHT22;58882;52.170;5.386;2023-04-03T03:37:02;12.80;41.70
70807;DHT22;58882;52.170;5.386;2023-04-03T03:39:56;12.80;41.70
70807;DHT22;58882;52.170;5.386;2023-04-03T03:42:37;12.80;41.80
70807;DHT22;58882;52.170;5.386;2023-04-03T03:45:23;12.80;41.80
70807;DHT22;58882;52.170;5.386;2023-04-03T03:48:03;12.80;41.90
70807;DHT22;58882;52.170;5.386;2023-04-03T03:50:57;12.80;41.80
70807;DHT22;58882;52.170;5.386;2023-04-03T03:53:39;12.80;41.90
70807;DHT22;58882;52.170;5.386;2023-04-03T03:56:26;12.80;42.10
70807;DHT22;58882;52.170;5.386;2023-04-03T03:59:06;12.80;42.00
70807;DHT22;58882;52.170;5.386;2023-04-03T04:01:53;12.80;42.00
70807;DHT22;58882;52.170;5.386;2023-04-03T04:04:33;12.80;42.10
70807;DHT22;58882;52.170;5.386;2023-04-03T04:07:20;12.80;42.10
70807;DHT22;58882;52.170;5.386;2023-04-03T04:10:01;12.80;42.30
70807;DHT22;58882;52.170;5.386;2023-04-03T04:12:49;12.70;42.20
70807;DHT22;58882;52.170;5.386;2023-04-03T04:15:31;12.70;42.30
70807;DHT22;58882;52.170;5.386;2023-04-03T04:18:19;12.70;42.30
70807;DHT22;58882;52.170;5.386;2023-04-03T04:21:01;12.70;42.30
70807;DHT22;58882;52.170;5.386;2023-04-03T04:23:49;12.70;42.30
70807;DHT22;58882;52.170;5.386;2023-04-03T04:26:29;12.60;42.30
70807;DHT22;58882;52.170;5.386;2023-04-03T04:29:24;12.60;42.30
70807;DHT22;58882;52.170;5.386;2023-04-03T04:32:09;12.60;42.40
70807;DHT22;58882;52.170;5.386;2023-04-03T04:34:55;12.60;42.30
70807;DHT22;58882;52.170;5.386;2023-04-03T04:37:39;12.60;42.20
70807;DHT22;58882;52.170;5.386;2023-04-03T04:40:26;12.60;42.10
70807;DHT22;58882;52.170;5.386;2023-04-03T04:43:06;12.60;42.10
70807;DHT22;58882;52.170;5.386;2023-04-03T04:46:07;12.60;42.10
70807;DHT22;58882;52.170;5.386;2023-04-03T04:48:52;12.60;42.20
70807;DHT22;58882;52.170;5.386;2023-04-03T04:51:39;12.60;42.10
70807;DHT22;58882;52.170;5.386;2023-04-03T04:54:28;12.70;42.10
70807;DHT22;58882;52.170;5.386;2023-04-03T04:57:22;12.60;43.10
70807;DHT22;58882;52.170;5.386;2023-04-03T05:00:03;12.60;42.00
70807;DHT22;58882;52.170;5.386;2023-04-03T05:02:50;12.60;42.00
70807;DHT22;58882;52.170;5.386;2023-04-03T05:05:23;12.60;42.00
70807;DHT22;58882;52.170;5.386;2023-04-03T05:08:17;12.70;42.00
70807;DHT22;58882;52.170;5.386;2023-04-03T05:10:51;12.70;41.90
70807;DHT22;58882;52.170;5.386;2023-04-03T05:13:46;12.60;41.80
70807;DHT22;58882;52.170;5.386;2023-04-03T05:16:28;12.70;41.80
70807;DHT22;58882;52.170;5.386;2023-04-03T05:19:14;12.60;41.80
70807;DHT22;58882;52.170;5.386;2023-04-03T05:21:55;12.70;41.80
70807;DHT22;58882;52.170;5.386;2023-04-03T05:24:42;12.60;41.70
70807;DHT22;58882;52.170;5.386;2023-04-03T05:27:23;12.60;41.70
70807;DHT22;58882;52.170;5.386;2023-04-03T05:30:09;12.70;42.70
70807;DHT22;58882;52.170;5.386;2023-04-03T05:32:50;12.60;41.80
70807;DHT22;58882;52.170;5.386;2023-04-03T05:35:53;12.70;41.80
70807;DHT22;58882;52.170;5.386;2023-04-03T05:38:27;12.60;41.60
70807;DHT22;58882;52.170;5.386;2023-04-03T05:41:22;12.70;41.80
70807;DHT22;58882;52.170;5.386;2023-04-03T05:44:03;12.70;42.00
70807;DHT22;58882;52.170;5.386;2023-04-03T05:46:57;12.70;41.90
70807;DHT22;58882;52.170;5.386;2023-04-03T05:49:37;12.60;42.10
70807;DHT22;58882;52.170;5.386;2023-04-03T05:52:34;12.60;42.10
70807;DHT22;58882;52.170;5.386;2023-04-03T05:55:16;12.70;42.30
70807;DHT22;58882;52.170;5.386;2023-04-03T05:58:03;12.70;43.10
70807;DHT22;58882;52.170;5.386;2023-04-03T06:00:45;12.70;42.30
70807;DHT22;58882;52.170;5.386;2023-04-03T06:03:39;12.70;42.00
70807;DHT22;58882;52.170;5.386;2023-04-03T06:06:19;12.70;42.00
70807;DHT22;58882;52.170;5.386;2023-04-03T06:09:06;12.80;42.10
70807;DHT22;58882;52.170;5.386;2023-04-03T06:11:39;12.80;42.10
70807;DHT22;58882;52.170;5.386;2023-04-03T06:14:34;12.90;41.80
70807;DHT22;58882;52.170;5.386;2023-04-03T06:17:16;13.00;42.00
70807;DHT22;58882;52.170;5.386;2023-04-03T06:20:02;13.10;41.70
70807;DHT22;58882;52.170;5.386;2023-04-03T06:22:43;13.20;41.40
70807;DHT22;58882;52.170;5.386;2023-04-03T06:25:37;13.30;41.40
70807;DHT22;58882;52.170;5.386;2023-04-03T06:28:10;13.40;41.40
70807;DHT22;58882;52.170;5.386;2023-04-03T06:31:06;13.50;41.40
70807;DHT22;58882;52.170;5.386;2023-04-03T06:33:39;13.70;41.50
70807;DHT22;58882;52.170;5.386;2023-04-03T06:36:33;14.00;41.00
70807;DHT22;58882;52.170;5.386;2023-04-03T06:39:16;14.30;40.60
70807;DHT22;58882;52.170;5.386;2023-04-03T06:42:03;14.50;40.20
70807;DHT22;58882;52.170;5.386;2023-04-03T06:44:59;14.80;39.50
70807;DHT22;58882;52.170;5.386;2023-04-03T06:47:54;15.10;39.10
70807;DHT22;58882;52.170;5.386;2023-04-03T06:50:28;15.40;38.90
70807;DHT22;58882;52.170;5.386;2023-04-03T06:53:22;15.60;38.60
70807;DHT22;58882;52.170;5.386;2023-04-03T06:55:55;15.80;38.50
70807;DHT22;58882;52.170;5.386;2023-04-03T06:58:49;16.10;38.10
70807;DHT22;58882;52.170;5.386;2023-04-03T07:01:31;16.40;37.50
70807;DHT22;58882;52.170;5.386;2023-04-03T07:04:18;16.70;37.80
70807;DHT22;58882;52.170;5.386;2023-04-03T07:06:59;16.90;36.40
70807;DHT22;58882;52.170;5.386;2023-04-03T07:09:46;17.20;36.50
70807;DHT22;58882;52.170;5.386;2023-04-03T07:12:34;17.40;35.50
70807;DHT22;58882;52.170;5.386;2023-04-03T07:15:28;17.70;35.20
70807;DHT22;58882;52.170;5.386;2023-04-03T07:18:08;18.00;34.90
70807;DHT22;58882;52.170;5.386;2023-04-03T07:20:56;18.40;35.30
70807;DHT22;58882;52.170;5.386;2023-04-03T07:23:36;18.80;35.00
70807;DHT22;58882;52.170;5.386;2023-04-03T07:26:23;19.20;35.40
70807;DHT22;58882;52.170;5.386;2023-04-03T07:29:03;19.50;34.20
70807;DHT22;58882;52.170;5.386;2023-04-03T07:31:50;19.80;33.70
70807;DHT22;58882;52.170;5.386;2023-04-03T07:34:30;19.90;32.30
70807;DHT22;58882;52.170;5.386;2023-04-03T07:37:17;20.10;32.30
70807;DHT22;58882;52.170;5.386;2023-04-03T07:39:57;20.30;33.80
70807;DHT22;58882;52.170;5.386;2023-04-03T07:42:44;20.60;32.50
70807;DHT22;58882;52.170;5.386;2023-04-03T07:45:24;20.80;34.30
70807;DHT22;58882;52.170;5.386;2023-04-03T07:48:11;21.20;32.50
70807;DHT22;58882;52.170;5.386;2023-04-03T07:50:51;21.40;32.40
70807;DHT22;58882;52.170;5.386;2023-04-03T07:53:38;21.70;32.30
70807;DHT22;58882;52.170;5.386;2023-04-03T07:56:18;21.90;31.60
70807;DHT22;58882;52.170;5.386;2023-04-03T07:59:05;22.10;31.20
70807;DHT22;58882;52.170;5.386;2023-04-03T08:01:46;22.20;30.30
70807;DHT22;58882;52.170;5.386;2023-04-03T08:04:33;22.50;30.40
70807;DHT22;58882;52.170;5.386;2023-04-03T08:07:13;22.70;30.40
70807;DHT22;58882;52.170;5.386;2023-04-03T08:10:00;22.80;30.00
70807;DHT22;58882;52.170;5.386;2023-04-03T08:12:47;23.00;29.20
70807;DHT22;58882;52.170;5.386;2023-04-03T08:15:27;23.20;27.50
70807;DHT22;58882;52.170;5.386;2023-04-03T08:18:15;23.30;28.50
70807;DHT22;58882;52.170;5.386;2023-04-03T08:20:48;23.40;29.60
70807;DHT22;58882;52.170;5.386;2023-04-03T08:23:42;23.60;29.30
70807;DHT22;58882;52.170;5.386;2023-04-03T08:26:18;23.80;29.50
70807;DHT22;58882;52.170;5.386;2023-04-03T08:29:13;23.90;29.10
70807;DHT22;58882;52.170;5.386;2023-04-03T08:31:53;24.00;28.90
70807;DHT22;58882;52.170;5.386;2023-04-03T08:34:40;24.20;28.80
70807;DHT22;58882;52.170;5.386;2023-04-03T08:37:21;24.20;28.20
70807;DHT22;58882;52.170;5.386;2023-04-03T08:40:14;24.30;29.10
70807;DHT22;58882;52.170;5.386;2023-04-03T08:46:03;24.50;29.30
70807;DHT22;58882;52.170;5.386;2023-04-03T08:48:44;24.60;29.80
70807;DHT22;58882;52.170;5.386;2023-04-03T08:51:40;24.80;29.40
70807;DHT22;58882;52.170;5.386;2023-04-03T08:54:33;24.80;29.70
70807;DHT22;58882;52.170;5.386;2023-04-03T08:57:36;24.90;29.80
70807;DHT22;58882;52.170;5.386;2023-04-03T09:00:23;25.00;29.10
70807;DHT22;58882;52.170;5.386;2023-04-03T09:03:20;25.10;29.10
70807;DHT22;58882;52.170;5.386;2023-04-03T09:06:11;25.10;28.60
70807;DHT22;58882;52.170;5.386;2023-04-03T09:09:15;25.20;28.90
70807;DHT22;58882;52.170;5.386;2023-04-03T09:15:21;25.40;29.10
70807;DHT22;58882;52.170;5.386;2023-04-03T09:18:16;25.40;28.80
70807;DHT22;58882;52.170;5.386;2023-04-03T09:21:32;25.40;27.60
70807;DHT22;58882;52.170;5.386;2023-04-03T09:24:10;25.40;25.30
70807;DHT22;58882;52.170;5.386;2023-04-03T09:27:09;25.50;27.40
70807;DHT22;58882;52.170;5.386;2023-04-03T09:29:53;25.50;26.90
70807;DHT22;58882;52.170;5.386;2023-04-03T09:32:40;25.60;27.50
70807;DHT22;58882;52.170;5.386;2023-04-03T09:35:27;25.60;27.70
70807;DHT22;58882;52.170;5.386;2023-04-03T09:38:26;25.70;27.00
70807;DHT22;58882;52.170;5.386;2023-04-03T09:41:13;25.70;26.10
70807;DHT22;58882;52.170;5.386;2023-04-03T09:44:01;25.70;25.30
70807;DHT22;58882;52.170;5.386;2023-04-03T09:46:41;25.70;26.90
70807;DHT22;58882;52.170;5.386;2023-04-03T09:49:28;25.80;27.60
70807;DHT22;58882;52.170;5.386;2023-04-03T09:52:25;25.80;27.20
70807;DHT22;58882;52.170;5.386;2023-04-03T09:55:18;25.80;27.50
70807;DHT22;58882;52.170;5.386;2023-04-03T09:58:05;25.70;27.10
70807;DHT22;58882;52.170;5.386;2023-04-03T10:01:38;25.80;24.50
70807;DHT22;58882;52.170;5.386;2023-04-03T10:04:19;25.70;25.10
70807;DHT22;58882;52.170;5.386;2023-04-03T10:07:28;25.80;24.80
70807;DHT22;58882;52.170;5.386;2023-04-03T10:13:27;25.80;25.10
70807;DHT22;58882;52.170;5.386;2023-04-03T10:16:38;25.60;25.30
70807;DHT22;58882;52.170;5.386;2023-04-03T10:19:47;25.60;24.70
70807;DHT22;58882;52.170;5.386;2023-04-03T10:28:52;25.70;25.70
70807;DHT22;58882;52.170;5.386;2023-04-03T10:34:37;25.70;23.60
70807;DHT22;58882;52.170;5.386;2023-04-03T10:40:57;25.70;23.60
70807;DHT22;58882;52.170;5.386;2023-04-03T10:46:50;25.60;23.80
70807;DHT22;58882;52.170;5.386;2023-04-03T10:52:52;25.50;22.40
70807;DHT22;58882;52.170;5.386;2023-04-03T10:55:52;25.50;23.30
70807;DHT22;58882;52.170;5.386;2023-04-03T10:58:38;25.40;22.50
70807;DHT22;58882;52.170;5.386;2023-04-03T11:01:38;25.40;22.20
70807;DHT22;58882;52.170;5.386;2023-04-03T11:04:22;25.40;22.70
70807;DHT22;58882;52.170;5.386;2023-04-03T11:07:16;25.40;23.30
70807;DHT22;58882;52.170;5.386;2023-04-03T11:10:09;25.30;23.00
70807;DHT22;58882;52.170;5.386;2023-04-03T11:13:01;25.10;21.70
70807;DHT22;58882;52.170;5.386;2023-04-03T11:15:46;24.80;22.40
70807;DHT22;58882;52.170;5.386;2023-04-03T11:18:52;24.40;23.50
70807;DHT22;58882;52.170;5.386;2023-04-03T11:21:40;23.90;24.20
70807;DHT22;58882;52.170;5.386;2023-04-03T11:24:32;23.60;22.70
70807;DHT22;58882;52.170;5.386;2023-04-03T11:27:15;23.30;23.40
70807;DHT22;58882;52.170;5.386;2023-04-03T11:30:18;23.20;22.70
70807;DHT22;58882;52.170;5.386;2023-04-03T11:36:23;23.30;24.10
70807;DHT22;58882;52.170;5.386;2023-04-03T11:42:39;23.60;24.60
70807;DHT22;58882;52.170;5.386;2023-04-03T11:54:44;23.80;24.20
70807;DHT22;58882;52.170;5.386;2023-04-03T11:58:02;23.90;22.90
70807;DHT22;58882;52.170;5.386;2023-04-03T12:12:33;23.80;24.70
70807;DHT22;58882;52.170;5.386;2023-04-03T12:18:42;23.70;23.40
70807;DHT22;58882;52.170;5.386;2023-04-03T12:33:14;23.40;25.50
70807;DHT22;58882;52.170;5.386;2023-04-03T12:36:10;23.40;25.50
70807;DHT22;58882;52.170;5.386;2023-04-03T12:45:51;23.20;24.80
70807;DHT22;58882;52.170;5.386;2023-04-03T12:48:28;23.20;24.60
70807;DHT22;58882;52.170;5.386;2023-04-03T12:54:31;23.10;23.80
70807;DHT22;58882;52.170;5.386;2023-04-03T12:57:27;23.00;23.50
70807;DHT22;58882;52.170;5.386;2023-04-03T13:00:39;22.90;22.60
70807;DHT22;58882;52.170;5.386;2023-04-03T13:03:33;22.80;22.00
70807;DHT22;58882;52.170;5.386;2023-04-03T13:06:18;22.70;22.00
70807;DHT22;58882;52.170;5.386;2023-04-03T13:09:14;22.60;22.60
70807;DHT22;58882;52.170;5.386;2023-04-03T13:12:10;22.50;22.20
70807;DHT22;58882;52.170;5.386;2023-04-03T13:17:59;22.30;22.90
70807;DHT22;58882;52.170;5.386;2023-04-03T13:20:48;22.40;22.80
70807;DHT22;58882;52.170;5.386;2023-04-03T13:23:21;22.30;22.80
70807;DHT22;58882;52.170;5.386;2023-04-03T13:26:17;22.20;22.30
70807;DHT22;58882;52.170;5.386;2023-04-03T13:28:50;22.10;21.90
70807;DHT22;58882;52.170;5.386;2023-04-03T13:31:45;22.00;22.30
70807;DHT22;58882;52.170;5.386;2023-04-03T13:38:00;21.80;23.50
70807;DHT22;58882;52.170;5.386;2023-04-03T13:40:33;21.70;21.90
70807;DHT22;58882;52.170;5.386;2023-04-03T13:43:33;21.50;22.20
70807;DHT22;58882;52.170;5.386;2023-04-03T13:49:21;21.30;22.00
70807;DHT22;58882;52.170;5.386;2023-04-03T13:52:28;21.10;22.20
70807;DHT22;58882;52.170;5.386;2023-04-03T13:55:18;21.00;22.10
70807;DHT22;58882;52.170;5.386;2023-04-03T14:03:57;20.70;22.50
70807;DHT22;58882;52.170;5.386;2023-04-03T14:06:45;20.70;22.80
70807;DHT22;58882;52.170;5.386;2023-04-03T14:09:27;20.50;22.50
70807;DHT22;58882;52.170;5.386;2023-04-03T14:12:30;20.40;22.70
70807;DHT22;58882;52.170;5.386;2023-04-03T14:15:18;20.30;23.10
70807;DHT22;58882;52.170;5.386;2023-04-03T14:18:15;20.20;22.90
70807;DHT22;58882;52.170;5.386;2023-04-03T14:20:50;20.10;22.90
70807;DHT22;58882;52.170;5.386;2023-04-03T14:23:45;20.00;23.50
70807;DHT22;58882;52.170;5.386;2023-04-03T14:26:25;19.90;24.20
70807;DHT22;58882;52.170;5.386;2023-04-03T14:29:13;19.90;24.20
70807;DHT22;58882;52.170;5.386;2023-04-03T14:31:53;20.00;23.70
70807;DHT22;58882;52.170;5.386;2023-04-03T14:34:53;19.90;24.30
70807;DHT22;58882;52.170;5.386;2023-04-03T14:37:34;19.80;23.90
70807;DHT22;58882;52.170;5.386;2023-04-03T14:40:28;19.70;23.50
70807;DHT22;58882;52.170;5.386;2023-04-03T14:43:01;19.50;23.40
70807;DHT22;58882;52.170;5.386;2023-04-03T14:45:55;19.40;23.60
70807;DHT22;58882;52.170;5.386;2023-04-03T14:48:30;19.30;23.70
70807;DHT22;58882;52.170;5.386;2023-04-03T14:51:25;19.30;24.00
70807;DHT22;58882;52.170;5.386;2023-04-03T14:54:06;19.40;24.30
70807;DHT22;58882;52.170;5.386;2023-04-03T14:56:59;19.40;24.20
70807;DHT22;58882;52.170;5.386;2023-04-03T14:59:39;19.30;24.00
70807;DHT22;58882;52.170;5.386;2023-04-03T15:02:39;19.30;24.10
70807;DHT22;58882;52.170;5.386;2023-04-03T15:05:20;19.20;24.10
70807;DHT22;58882;52.170;5.386;2023-04-03T15:08:18;19.10;24.20
70807;DHT22;58882;52.170;5.386;2023-04-03T15:10:53;19.00;24.20
70807;DHT22;58882;52.170;5.386;2023-04-03T15:13:47;18.80;24.40
70807;DHT22;58882;52.170;5.386;2023-04-03T15:16:27;18.70;24.70
70807;DHT22;58882;52.170;5.386;2023-04-03T15:19:15;18.70;24.50
70807;DHT22;58882;52.170;5.386;2023-04-03T15:21:49;18.60;24.70
70807;DHT22;58882;52.170;5.386;2023-04-03T15:24:43;18.60;24.60
70807;DHT22;58882;52.170;5.386;2023-04-03T15:27:23;18.50;24.90
70807;DHT22;58882;52.170;5.386;2023-04-03T15:30:16;18.50;25.10
70807;DHT22;58882;52.170;5.386;2023-04-03T15:32:56;18.50;24.90
70807;DHT22;58882;52.170;5.386;2023-04-03T15:35:43;18.50;24.90
70807;DHT22;58882;52.170;5.386;2023-04-03T15:38:23;18.40;24.70
70807;DHT22;58882;52.170;5.386;2023-04-03T15:41:10;18.40;25.00
70807;DHT22;58882;52.170;5.386;2023-04-03T15:43:50;18.20;25.10
70807;DHT22;58882;52.170;5.386;2023-04-03T15:46:38;18.20;25.30
70807;DHT22;58882;52.170;5.386;2023-04-03T15:49:20;18.30;26.20
70807;DHT22;58882;52.170;5.386;2023-04-03T15:52:07;18.20;25.50
70807;DHT22;58882;52.170;5.386;2023-04-03T15:54:47;18.20;25.60
70807;DHT22;58882;52.170;5.386;2023-04-03T15:57:34;18.20;25.60
70807;DHT22;58882;52.170;5.386;2023-04-03T16:00:15;18.20;25.40
70807;DHT22;58882;52.170;5.386;2023-04-03T16:03:10;18.10;25.80
70807;DHT22;58882;52.170;5.386;2023-04-03T16:05:50;18.20;26.10
70807;DHT22;58882;52.170;5.386;2023-04-03T16:08:44;18.20;26.10
70807;DHT22;58882;52.170;5.386;2023-04-03T16:11:25;18.30;26.00
70807;DHT22;58882;52.170;5.386;2023-04-03T16:14:12;18.20;25.80
70807;DHT22;58882;52.170;5.386;2023-04-03T16:16:52;18.20;26.20
70807;DHT22;58882;52.170;5.386;2023-04-03T16:19:46;18.20;26.30
70807;DHT22;58882;52.170;5.386;2023-04-03T16:22:27;18.20;26.40
70807;DHT22;58882;52.170;5.386;2023-04-03T16:25:17;18.30;26.20
70807;DHT22;58882;52.170;5.386;2023-04-03T16:28:13;18.30;26.20
70807;DHT22;58882;52.170;5.386;2023-04-03T16:30:53;18.20;26.30
70807;DHT22;58882;52.170;5.386;2023-04-03T16:33:40;18.20;26.20
70807;DHT22;58882;52.170;5.386;2023-04-03T16:36:20;18.10;26.10
70807;DHT22;58882;52.170;5.386;2023-04-03T16:39:07;18.00;26.30
70807;DHT22;58882;52.170;5.386;2023-04-03T17:03:03;17.90;26.40
70807;DHT22;58882;52.170;5.386;2023-04-03T17:05:57;17.90;26.30
70807;DHT22;58882;52.170;5.386;2023-04-03T17:08:37;17.90;26.10
70807;DHT22;58882;52.170;5.386;2023-04-03T17:11:35;17.80;25.90
70807;DHT22;58882;52.170;5.386;2023-04-03T17:14:08;17.60;26.20
70807;DHT22;58882;52.170;5.386;2023-04-03T17:17:03;17.60;26.30
